createdAt,value
2022-12-13T00:01:57.756Z,36.08
2022-12-13T00:04:25.852Z,37.05
2022-12-13T00:06:54.237Z,36.98
2022-12-13T00:09:23.678Z,38.28
2022-12-13T00:11:56.581Z,37.75
2022-12-13T00:14:24.714Z,36.00
2022-12-13T00:16:52.875Z,35.28
2022-12-13T00:19:21.944Z,35.33
2022-12-13T00:21:51.468Z,35.28
2022-12-13T00:24:21.128Z,33.78
2022-12-13T00:26:54.652Z,34.78
2022-12-13T00:29:22.663Z,35.98
2022-12-13T00:31:59.325Z,31.07
2022-12-13T00:34:23.504Z,36.25
2022-12-13T00:36:53.422Z,29.00
2022-12-13T00:39:21.036Z,27.37
2022-12-13T00:41:49.611Z,24.05
2022-12-13T00:44:19.935Z,22.55
2022-12-13T00:46:50.581Z,21.68
2022-12-13T00:49:19.437Z,22.10
2022-12-13T00:51:48.846Z,21.95
2022-12-13T00:54:16.963Z,21.52
2022-12-13T00:56:44.517Z,21.40
2022-12-13T00:59:15.387Z,21.17
2022-12-13T01:01:43.399Z,22.30
2022-12-13T01:04:11.578Z,20.27
2022-12-13T01:06:46.014Z,20.23
2022-12-13T01:09:21.494Z,20.90
2022-12-13T01:11:50.559Z,20.23
2022-12-13T01:14:19.085Z,20.37
2022-12-13T01:16:47.246Z,20.32
2022-12-13T01:19:15.183Z,20.35
2022-12-13T01:21:43.064Z,19.70
2022-12-13T01:24:10.856Z,19.50
2022-12-13T01:26:38.772Z,20.17
2022-12-13T01:29:06.690Z,19.98
2022-12-13T01:31:37.029Z,20.65
2022-12-13T01:34:06.613Z,21.15
2022-12-13T01:36:38.200Z,20.32
2022-12-13T01:39:14.420Z,19.65
2022-12-13T01:41:34.170Z,18.90
2022-12-13T01:44:04.993Z,20.30
2022-12-13T01:46:35.221Z,20.48
2022-12-13T01:49:20.002Z,21.75
2022-12-13T01:51:47.569Z,25.82
2022-12-13T01:54:21.304Z,25.45
2022-12-13T01:56:52.957Z,26.57
2022-12-13T01:59:23.178Z,28.35
2022-12-13T02:01:52.253Z,31.07
2022-12-13T02:04:28.344Z,30.75
2022-12-13T02:06:57.579Z,30.77
2022-12-13T02:09:26.196Z,28.95
2022-12-13T02:11:54.294Z,26.40
2022-12-13T02:14:22.074Z,24.95
2022-12-13T02:17:13.129Z,21.70
2022-12-13T02:20:01.508Z,18.57
2022-12-13T02:22:49.165Z,18.67
2022-12-13T02:26:09.532Z,19.30
2022-12-13T02:29:29.975Z,17.37
2022-12-13T02:32:01.737Z,17.60
2022-12-13T02:34:36.876Z,17.10
2022-12-13T02:40:17.498Z,17.52
2022-12-13T02:43:23.843Z,16.57
2022-12-13T02:45:58.013Z,16.30
2022-12-13T02:48:30.077Z,17.35
2022-12-13T02:51:00.838Z,18.40
2022-12-13T02:53:29.847Z,16.12
2022-12-13T02:55:59.716Z,17.32
2022-12-13T02:58:33.216Z,18.17
2022-12-13T03:01:28.175Z,19.32
2022-12-13T03:04:08.602Z,20.40
2022-12-13T03:07:10.395Z,20.20
2022-12-13T03:09:52.197Z,19.05
2022-12-13T03:12:43.622Z,20.00
2022-12-13T03:15:18.945Z,18.60
2022-12-13T03:20:29.197Z,16.90
2022-12-13T03:22:58.435Z,15.30
2022-12-13T03:25:32.047Z,16.57
2022-12-13T03:28:02.204Z,14.95
2022-12-13T03:30:32.085Z,15.93
2022-12-13T03:33:00.821Z,15.35
2022-12-13T03:35:34.171Z,15.85
2022-12-13T03:38:01.353Z,16.25
2022-12-13T03:40:30.717Z,14.60
2022-12-13T03:42:58.650Z,14.15
2022-12-13T03:45:26.311Z,15.32
2022-12-13T03:47:54.175Z,15.53
2022-12-13T03:50:26.481Z,15.65
2022-12-13T03:52:59.472Z,15.45
2022-12-13T03:55:28.425Z,15.65
2022-12-13T03:57:56.376Z,15.38
2022-12-13T04:00:25.704Z,16.60
2022-12-13T04:02:53.449Z,14.63
2022-12-13T04:05:21.057Z,16.23
2022-12-13T04:07:48.874Z,15.88
2022-12-13T04:10:26.276Z,17.20
2022-12-13T04:13:11.555Z,17.07
2022-12-13T04:15:39.924Z,17.92
2022-12-13T04:18:07.519Z,17.80
2022-12-13T04:20:35.551Z,18.65
2022-12-13T04:23:10.086Z,18.73
2022-12-13T04:25:35.995Z,19.02
2022-12-13T04:28:03.742Z,19.95
2022-12-13T04:30:31.430Z,17.35
2022-12-13T04:32:59.488Z,20.12
2022-12-13T04:35:27.289Z,18.20
2022-12-13T04:37:56.422Z,17.95
2022-12-13T04:40:24.244Z,18.23
2022-12-13T04:42:54.580Z,17.57
2022-12-13T04:45:22.722Z,19.07
2022-12-13T04:47:50.516Z,18.80
2022-12-13T04:50:18.153Z,18.62
2022-12-13T04:52:45.986Z,20.92
2022-12-13T04:55:14.090Z,20.92
2022-12-13T04:57:42.161Z,24.87
2022-12-13T05:00:15.185Z,21.87
2022-12-13T05:02:42.961Z,17.62
2022-12-13T05:05:11.786Z,16.52
2022-12-13T05:07:42.396Z,21.95
2022-12-13T05:10:11.085Z,18.15
2022-12-13T05:12:38.976Z,16.32
2022-12-13T05:15:07.435Z,16.48
2022-12-13T05:17:35.119Z,15.88
2022-12-13T05:20:03.579Z,17.15
2022-12-13T05:22:31.229Z,20.10
2022-12-13T05:25:02.149Z,15.50
2022-12-13T05:27:30.046Z,17.40
2022-12-13T05:30:03.345Z,19.92
2022-12-13T05:32:30.243Z,19.10
2022-12-13T05:37:44.439Z,23.67
2022-12-13T05:40:12.396Z,19.73
2022-12-13T05:42:41.093Z,18.82
2022-12-13T05:45:10.542Z,18.00
2022-12-13T05:47:38.578Z,16.82
2022-12-13T05:50:07.411Z,15.50
2022-12-13T05:52:35.597Z,16.52
2022-12-13T05:55:05.463Z,15.85
2022-12-13T05:57:34.132Z,19.55
2022-12-13T06:00:06.908Z,14.10
2022-12-13T06:02:41.262Z,17.12
2022-12-13T06:05:11.975Z,20.37
2022-12-13T06:07:53.649Z,18.92
2022-12-13T06:10:21.976Z,18.07
2022-12-13T06:12:49.425Z,15.78
2022-12-13T06:15:22.672Z,16.55
2022-12-13T06:17:47.174Z,16.15
2022-12-13T06:20:24.415Z,19.23
2022-12-13T06:22:47.059Z,19.37
2022-12-13T06:25:31.014Z,21.12
2022-12-13T06:27:45.379Z,19.37
2022-12-13T06:30:15.286Z,19.27
2022-12-13T06:32:44.126Z,18.07
2022-12-13T06:35:27.982Z,17.32
2022-12-13T06:37:43.895Z,21.60
2022-12-13T06:40:12.643Z,23.45
2022-12-13T06:42:40.397Z,24.45
2022-12-13T06:45:11.834Z,28.50
2022-12-13T06:47:41.808Z,24.52
2022-12-13T06:50:10.202Z,21.57
2022-12-13T06:52:46.685Z,18.82
2022-12-13T06:55:15.037Z,18.92
2022-12-13T06:57:44.516Z,18.05
2022-12-13T07:00:14.193Z,19.73
2022-12-13T07:02:44.545Z,18.50
2022-12-13T07:05:13.027Z,19.45
2022-12-13T07:07:44.790Z,19.52
2022-12-13T07:10:22.007Z,19.15
2022-12-13T07:12:47.502Z,19.20
2022-12-13T07:15:15.932Z,22.02
2022-12-13T07:17:44.441Z,23.45
2022-12-13T07:20:15.092Z,22.60
2022-12-13T07:22:55.093Z,22.25
2022-12-13T07:25:26.710Z,32.38
2022-12-13T07:28:02.075Z,25.43
2022-12-13T07:30:33.029Z,23.55
2022-12-13T07:33:02.834Z,25.30
2022-12-13T07:35:31.946Z,23.40
2022-12-13T07:38:01.283Z,24.75
2022-12-13T07:40:29.215Z,25.05
2022-12-13T07:42:57.188Z,26.07
2022-12-13T07:45:26.935Z,24.77
2022-12-13T07:47:54.779Z,22.82
2022-12-13T07:50:24.796Z,20.62
2022-12-13T07:52:53.700Z,22.22
2022-12-13T07:55:23.234Z,22.67
2022-12-13T07:57:53.114Z,27.70
2022-12-13T08:00:22.001Z,25.10
2022-12-13T08:02:50.086Z,23.55
2022-12-13T08:05:26.981Z,23.32
2022-12-13T08:07:48.400Z,22.32
2022-12-13T08:10:16.419Z,20.77
2022-12-13T08:12:45.335Z,14.98
2022-12-13T08:15:14.290Z,12.30
2022-12-13T08:17:42.208Z,11.78
2022-12-13T08:20:11.152Z,11.10
2022-12-13T08:22:39.689Z,11.40
2022-12-13T08:25:08.019Z,10.45
2022-12-13T08:27:36.191Z,11.65
2022-12-13T08:30:07.117Z,12.10
2022-12-13T08:32:34.720Z,14.47
2022-12-13T08:35:03.677Z,13.80
2022-12-13T08:37:31.674Z,13.43
2022-12-13T08:39:59.685Z,10.58
2022-12-13T08:42:27.592Z,9.80
2022-12-13T08:44:55.649Z,9.38
2022-12-13T08:47:26.536Z,10.82
2022-12-13T08:50:01.562Z,9.35
2022-12-13T08:52:39.504Z,10.93
2022-12-13T08:55:05.939Z,14.23
2022-12-13T08:57:36.884Z,11.03
2022-12-13T09:00:14.785Z,10.90
2022-12-13T09:02:42.915Z,11.78
2022-12-13T09:05:12.498Z,11.93
2022-12-13T09:07:40.624Z,11.65
2022-12-13T09:10:27.053Z,11.08
2022-12-13T09:12:44.960Z,13.75
2022-12-13T09:15:22.544Z,12.65
2022-12-13T09:17:42.879Z,12.47
2022-12-13T09:20:29.211Z,9.40
2022-12-13T09:22:45.448Z,10.08
2022-12-13T09:25:15.437Z,10.65
2022-12-13T09:27:44.972Z,10.63
2022-12-13T09:30:13.648Z,9.60
2022-12-13T09:32:44.084Z,11.73
2022-12-13T09:35:14.885Z,19.55
2022-12-13T09:37:45.912Z,10.63
2022-12-13T09:40:25.443Z,10.68
2022-12-13T09:43:08.294Z,12.10
2022-12-13T09:45:31.907Z,10.20
2022-12-13T09:47:54.135Z,15.50
2022-12-13T09:50:37.076Z,14.98
2022-12-13T09:53:05.732Z,11.68
2022-12-13T09:55:42.177Z,11.88
2022-12-13T09:58:24.540Z,10.33
2022-12-13T10:00:55.549Z,8.75
2022-12-13T10:03:25.401Z,7.85
2022-12-13T10:06:10.563Z,8.90
2022-12-13T10:08:44.554Z,9.55
2022-12-13T10:11:16.430Z,10.80
2022-12-13T10:14:09.769Z,11.45
2022-12-13T10:16:48.995Z,11.00
2022-12-13T10:19:29.439Z,8.35
2022-12-13T10:21:54.048Z,8.60
2022-12-13T10:24:37.407Z,10.43
2022-12-13T10:27:15.226Z,9.60
2022-12-13T10:30:08.014Z,12.68
2022-12-13T10:32:56.303Z,13.08
2022-12-13T10:35:28.853Z,11.78
2022-12-13T10:38:13.113Z,8.80
2022-12-13T10:40:47.977Z,8.25
2022-12-13T10:43:22.872Z,9.85
2022-12-13T10:46:00.120Z,9.40
2022-12-13T10:48:43.080Z,8.98
2022-12-13T10:51:13.954Z,8.98
2022-12-13T10:53:56.007Z,7.55
2022-12-13T10:56:41.266Z,12.98
2022-12-13T10:59:29.529Z,14.05
2022-12-13T11:01:57.307Z,8.68
2022-12-13T11:04:34.318Z,9.00
2022-12-13T11:07:21.896Z,9.18
2022-12-13T11:09:52.846Z,10.00
2022-12-13T11:12:27.550Z,8.33
2022-12-13T11:15:04.038Z,8.50
2022-12-13T11:17:36.820Z,8.55
2022-12-13T11:20:25.347Z,9.90
2022-12-13T11:23:04.344Z,8.33
2022-12-13T11:25:43.567Z,8.15
2022-12-13T11:28:55.489Z,9.35
2022-12-13T11:31:59.271Z,10.35
2022-12-13T11:34:50.382Z,9.10
2022-12-13T11:37:37.612Z,9.60
2022-12-13T11:40:27.479Z,9.08
2022-12-13T11:43:26.981Z,9.95
2022-12-13T11:46:01.864Z,9.48
2022-12-13T11:48:50.261Z,8.70
2022-12-13T11:51:23.792Z,12.10
2022-12-13T11:54:03.079Z,8.45
2022-12-13T11:56:35.365Z,8.28
2022-12-13T11:59:30.661Z,6.78
2022-12-13T12:02:26.045Z,7.55
2022-12-13T12:05:00.444Z,8.03
2022-12-13T12:07:34.958Z,8.60
2022-12-13T12:10:29.759Z,9.30
2022-12-13T12:13:05.568Z,8.30
2022-12-13T12:15:41.849Z,7.80
2022-12-13T12:18:16.014Z,7.12
2022-12-13T12:21:14.325Z,6.87
2022-12-13T12:24:03.391Z,10.40
2022-12-13T12:26:58.059Z,9.33
2022-12-13T12:29:51.152Z,7.33
2022-12-13T12:35:31.177Z,7.85
2022-12-13T12:38:40.642Z,7.62
2022-12-13T12:42:01.507Z,7.35
2022-12-13T12:44:52.424Z,8.23
2022-12-13T12:48:42.038Z,8.90
2022-12-13T12:50:55.111Z,8.55
2022-12-13T12:53:42.290Z,8.43
2022-12-13T12:56:45.786Z,8.15
2022-12-13T13:00:07.184Z,8.53
2022-12-13T13:02:55.835Z,6.65
2022-12-13T13:05:44.561Z,6.72
2022-12-13T13:08:25.113Z,8.43
2022-12-13T13:11:01.905Z,8.20
2022-12-13T13:13:49.943Z,8.63
2022-12-13T13:16:41.337Z,8.60
2022-12-13T13:19:25.946Z,9.08
2022-12-13T13:22:01.271Z,7.25
2022-12-13T13:24:32.847Z,7.85
2022-12-13T13:27:18.199Z,11.25
2022-12-13T13:29:47.018Z,8.45
2022-12-13T13:32:28.425Z,7.62
2022-12-13T13:35:37.289Z,14.33
2022-12-13T13:38:27.346Z,10.90
2022-12-13T13:40:55.267Z,10.03
2022-12-13T13:43:32.990Z,12.28
2022-12-13T13:46:11.748Z,8.95
2022-12-13T13:49:08.897Z,7.42
2022-12-13T13:55:17.275Z,9.30
2022-12-13T14:01:15.851Z,7.67
2022-12-13T14:04:23.284Z,9.08
2022-12-13T14:07:31.634Z,9.35
2022-12-13T14:10:20.212Z,8.78
2022-12-13T14:13:05.660Z,9.88
2022-12-13T14:16:12.191Z,9.65
2022-12-13T14:19:25.947Z,8.78
2022-12-13T14:22:23.438Z,12.90
2022-12-13T14:25:09.360Z,14.55
2022-12-13T14:27:57.809Z,9.65
2022-12-13T14:30:28.695Z,11.05
2022-12-13T14:32:57.240Z,10.38
2022-12-13T14:35:32.004Z,10.90
2022-12-13T14:38:08.681Z,10.40
2022-12-13T14:40:43.439Z,10.75
2022-12-13T14:43:33.930Z,9.65
2022-12-13T14:46:08.048Z,10.10
2022-12-13T14:48:46.688Z,10.53
2022-12-13T14:51:34.970Z,9.48
2022-12-13T14:54:06.340Z,14.95
2022-12-13T14:56:35.022Z,9.95
2022-12-13T14:59:09.428Z,11.08
2022-12-13T15:01:38.868Z,11.30
2022-12-13T15:04:24.840Z,9.63
2022-12-13T15:07:10.929Z,10.43
2022-12-13T15:09:42.634Z,10.43
2022-12-13T15:12:24.430Z,10.35
2022-12-13T15:14:53.147Z,19.20
2022-12-13T15:17:37.260Z,15.20
2022-12-13T15:20:30.361Z,12.20
2022-12-13T15:23:05.424Z,10.50
2022-12-13T15:25:36.249Z,10.93
2022-12-13T15:28:06.575Z,20.82
2022-12-13T15:30:35.996Z,31.17
2022-12-13T15:33:17.943Z,15.48
2022-12-13T15:35:48.595Z,30.43
2022-12-13T15:38:29.129Z,17.45
2022-12-13T15:40:50.400Z,21.07
2022-12-13T15:43:22.881Z,16.90
2022-12-13T15:45:53.037Z,16.62
2022-12-13T15:48:34.581Z,15.95
2022-12-13T15:51:29.627Z,16.80
2022-12-13T15:57:04.682Z,26.80
2022-12-13T15:59:35.378Z,15.35
2022-12-13T16:02:06.159Z,15.83
2022-12-13T16:04:34.059Z,14.03
2022-12-13T16:07:02.152Z,31.07
2022-12-13T16:09:34.544Z,26.62
2022-12-13T16:12:06.533Z,32.75
2022-12-13T16:14:49.773Z,29.35
2022-12-13T16:17:26.883Z,26.95
2022-12-13T16:20:06.018Z,29.40
2022-12-13T16:22:30.277Z,34.27
2022-12-13T16:25:12.941Z,34.75
2022-12-13T16:27:49.213Z,37.35
2022-12-13T16:30:32.322Z,34.65
2022-12-13T16:33:30.431Z,26.60
2022-12-13T16:35:48.884Z,24.00
2022-12-13T16:38:35.711Z,22.70
2022-12-13T16:44:07.970Z,21.20
2022-12-13T16:47:14.155Z,21.97
2022-12-13T16:49:30.106Z,22.98
2022-12-13T16:52:03.019Z,19.87
2022-12-13T16:54:41.309Z,18.98
2022-12-13T16:57:11.826Z,15.93
2022-12-13T16:59:40.241Z,14.55
2022-12-13T17:02:18.264Z,14.07
2022-12-13T17:04:52.319Z,12.98
2022-12-13T17:07:32.853Z,11.65
2022-12-13T17:10:07.321Z,11.40
2022-12-13T17:12:42.675Z,22.22
2022-12-13T17:15:12.583Z,15.98
2022-12-13T17:17:44.093Z,17.00
2022-12-13T17:20:17.829Z,14.95
2022-12-13T17:22:47.055Z,19.87
2022-12-13T17:25:17.177Z,19.40
2022-12-13T17:27:45.418Z,21.62
2022-12-13T17:30:17.152Z,22.70
2022-12-13T17:32:45.423Z,39.18
2022-12-13T17:35:18.154Z,32.45
2022-12-13T17:37:43.804Z,33.02
2022-12-13T17:40:11.871Z,70.47
2022-12-13T17:42:40.155Z,53.95
2022-12-13T17:45:08.652Z,42.15
2022-12-13T17:47:45.701Z,36.65
2022-12-13T17:50:13.811Z,34.25
2022-12-13T17:52:42.245Z,26.20
2022-12-13T17:55:14.927Z,27.02
2022-12-13T17:57:41.297Z,27.77
2022-12-13T18:00:11.014Z,30.90
2022-12-13T18:02:55.466Z,28.67
2022-12-13T18:05:18.159Z,25.92
2022-12-13T18:07:50.775Z,26.85
2022-12-13T18:10:15.835Z,31.10
2022-12-13T18:12:43.498Z,27.48
2022-12-13T18:15:11.725Z,25.05
2022-12-13T18:18:09.521Z,28.17
2022-12-13T18:20:09.612Z,27.85
2022-12-13T18:22:43.094Z,30.05
2022-12-13T18:25:11.319Z,28.75
2022-12-13T18:27:40.912Z,26.48
2022-12-13T18:30:10.271Z,24.70
2022-12-13T18:32:41.479Z,24.37
2022-12-13T18:35:09.805Z,21.90
2022-12-13T18:37:39.883Z,21.85
2022-12-13T18:40:09.482Z,20.65
2022-12-13T18:42:38.250Z,21.00
2022-12-13T18:45:07.080Z,21.35
2022-12-13T18:47:34.968Z,22.65
2022-12-13T18:50:03.246Z,24.63
2022-12-13T18:52:31.202Z,28.95
2022-12-13T18:54:59.139Z,21.30
2022-12-13T18:57:26.800Z,19.67
2022-12-13T18:59:55.047Z,23.30
2022-12-13T19:02:22.772Z,23.75
2022-12-13T19:04:55.261Z,40.60
2022-12-13T19:07:20.779Z,56.65
2022-12-13T19:09:54.411Z,46.33
2022-12-13T19:12:18.684Z,38.88
2022-12-13T19:14:54.754Z,39.03
2022-12-13T19:17:17.538Z,36.73
2022-12-13T19:19:48.304Z,36.03
2022-12-13T19:22:17.549Z,31.25
2022-12-13T19:24:47.385Z,27.93
2022-12-13T19:27:16.502Z,28.42
2022-12-13T19:29:45.687Z,28.73
2022-12-13T19:32:14.119Z,27.27
2022-12-13T19:34:42.133Z,26.93
2022-12-13T19:37:10.934Z,21.80
2022-12-13T19:39:41.944Z,18.87
2022-12-13T19:42:11.806Z,19.65
2022-12-13T19:44:40.170Z,18.32
2022-12-13T19:47:07.822Z,18.60
2022-12-13T19:49:38.721Z,22.00
2022-12-13T19:52:08.113Z,21.70
2022-12-13T19:54:36.088Z,20.85
2022-12-13T19:57:07.444Z,30.08
2022-12-13T19:59:35.505Z,55.33
2022-12-13T20:02:05.235Z,61.13
2022-12-13T20:04:33.702Z,46.18
2022-12-13T20:07:02.511Z,30.82
2022-12-13T20:09:30.453Z,40.63
2022-12-13T20:11:58.782Z,35.05
2022-12-13T20:14:27.119Z,32.10
2022-12-13T20:16:54.883Z,62.62
2022-12-13T20:19:24.407Z,66.67
2022-12-13T20:21:56.949Z,70.47
2022-12-13T20:24:22.441Z,69.80
2022-12-13T20:26:51.187Z,78.10
2022-12-13T20:29:19.548Z,67.40
2022-12-13T20:31:51.590Z,51.40
2022-12-13T20:34:20.431Z,47.67
2022-12-13T20:36:50.134Z,48.80
2022-12-13T20:39:17.867Z,48.02
2022-12-13T20:41:46.796Z,46.73
2022-12-13T20:44:15.054Z,64.25
2022-12-13T20:46:43.751Z,59.88
2022-12-13T20:49:14.530Z,67.30
2022-12-13T20:51:42.421Z,53.78
2022-12-13T20:54:10.611Z,44.70
2022-12-13T20:56:40.417Z,49.90
2022-12-13T20:59:12.921Z,36.42
2022-12-13T21:01:41.894Z,39.60
2022-12-13T21:04:12.123Z,37.63
2022-12-13T21:06:41.872Z,29.87
2022-12-13T21:09:11.411Z,30.43
2022-12-13T21:11:46.547Z,28.60
2022-12-13T21:14:25.456Z,33.95
2022-12-13T21:16:59.470Z,32.10
2022-12-13T21:19:38.919Z,32.40
2022-12-13T21:24:30.053Z,29.77
2022-12-13T21:27:00.210Z,28.77
2022-12-13T21:29:28.751Z,30.70
2022-12-13T21:31:57.359Z,26.75
2022-12-13T21:34:26.060Z,25.82
2022-12-13T21:36:54.625Z,24.85
2022-12-13T21:39:27.057Z,26.65
2022-12-13T21:41:55.368Z,25.50
2022-12-13T21:44:26.108Z,24.32
2022-12-13T21:49:24.618Z,23.83
2022-12-13T21:51:52.793Z,25.40
2022-12-13T21:54:21.712Z,26.52
2022-12-13T21:57:08.496Z,27.27
2022-12-13T21:59:36.734Z,28.90
2022-12-13T22:02:15.618Z,30.27
2022-12-13T22:04:56.642Z,30.72
2022-12-13T22:07:30.798Z,32.25
2022-12-13T22:10:00.810Z,32.60
2022-12-13T22:12:45.819Z,28.98
2022-12-13T22:15:16.274Z,27.27
2022-12-13T22:17:43.860Z,24.18
2022-12-13T22:20:14.870Z,26.80
2022-12-13T22:22:45.470Z,31.12
2022-12-13T22:25:13.498Z,29.57
2022-12-13T22:27:41.796Z,25.60
2022-12-13T22:30:11.984Z,27.35
2022-12-13T22:32:40.611Z,28.85
2022-12-13T22:35:09.304Z,30.95
2022-12-13T22:37:39.163Z,25.75
2022-12-13T22:40:08.547Z,24.92
2022-12-13T22:42:36.757Z,24.27
2022-12-13T22:45:05.639Z,36.15
2022-12-13T22:47:34.516Z,31.37
2022-12-13T22:50:02.851Z,33.35
2022-12-13T22:52:33.973Z,31.85
2022-12-13T22:55:00.334Z,34.58
2022-12-13T22:57:27.910Z,31.20
2022-12-13T22:59:55.710Z,28.55
2022-12-13T23:02:23.444Z,32.08
2022-12-13T23:04:51.280Z,30.55
2022-12-13T23:07:18.972Z,38.67
2022-12-13T23:09:46.505Z,49.10
2022-12-13T23:12:32.528Z,38.35
2022-12-13T23:15:00.378Z,32.95
2022-12-13T23:17:28.108Z,28.07
2022-12-13T23:19:56.110Z,23.52
2022-12-13T23:22:25.919Z,19.00
2022-12-13T23:24:53.758Z,17.23
2022-12-13T23:27:23.504Z,15.65
2022-12-13T23:29:51.512Z,15.68
2022-12-13T23:32:19.224Z,16.42
2022-12-13T23:34:47.030Z,16.17
2022-12-13T23:37:16.507Z,17.60
2022-12-13T23:39:44.207Z,18.07
2022-12-13T23:42:12.073Z,16.97
2022-12-13T23:44:39.862Z,15.90
2022-12-13T23:47:07.736Z,17.15
2022-12-13T23:49:35.624Z,17.60
2022-12-13T23:52:03.466Z,17.95
2022-12-13T23:54:31.254Z,15.65
2022-12-13T23:56:59.211Z,15.13
2022-12-13T23:59:27.685Z,15.20
